Time;durP1;ratioP1;P1;durP2;ratioP2;P2;SDS_P1;SDS_P2;PMS_P1;PMS_P2;Temp;Humidity;BMP_temperature;BMP_pressure;BME280_temperature;BME280_humidity;BME280_pressure;Samples;Min_cycle;Max_cycle;Signal;HPM_P1;HPM_P2
2024/02/25 00:00:15;;;;;;;14.57;1.53;;;5.80;97.90;;;;;;4995597;28;20262;-82
2024/02/25 00:02:41;;;;;;;14.77;1.47;;;5.80;97.60;;;;;;4996090;28;20176;-81
2024/02/25 00:05:07;;;;;;;14.90;1.77;;;5.90;97.60;;;;;;4995646;28;20422;-81
2024/02/25 00:07:33;;;;;;;14.93;1.70;;;5.90;97.20;;;;;;4995487;28;20410;-82
2024/02/25 00:09:59;;;;;;;16.97;1.63;;;6.00;96.10;;;;;;4995600;28;20183;-82
2024/02/25 00:12:25;;;;;;;15.23;2.17;;;6.00;93.60;;;;;;4995913;28;20407;-82
2024/02/25 00:14:50;;;;;;;15.97;2.20;;;6.00;93.00;;;;;;4995731;28;20174;-82
2024/02/25 00:17:16;;;;;;;15.70;2.17;;;6.00;93.50;;;;;;4998976;28;20187;-82
2024/02/25 00:19:42;;;;;;;13.80;1.30;;;6.00;93.50;;;;;;4999820;28;20163;-82
2024/02/25 00:22:07;;;;;;;14.70;1.70;;;6.00;92.80;;;;;;4999661;28;20654;-81
2024/02/25 00:24:33;;;;;;;14.60;1.93;;;5.90;92.80;;;;;;4999788;28;20167;-82
2024/02/25 00:26:58;;;;;;;15.50;1.70;;;5.90;93.80;;;;;;4999636;28;20265;-81
2024/02/25 00:29:24;;;;;;;14.70;1.90;;;6.00;92.70;;;;;;5000044;28;20202;-82
2024/02/25 00:31:50;;;;;;;16.77;1.63;;;5.90;92.10;;;;;;4999357;28;20194;-81
2024/02/25 00:34:15;;;;;;;15.43;1.73;;;5.90;93.90;;;;;;4998885;28;20576;-82
2024/02/25 00:36:41;;;;;;;15.80;1.80;;;6.00;92.40;;;;;;4999262;28;20699;-82
2024/02/25 00:39:07;;;;;;;13.90;1.10;;;6.00;92.20;;;;;;4999692;28;20190;-82
2024/02/25 00:41:33;;;;;;;14.70;1.98;;;6.00;93.00;;;;;;4999841;28;20274;-81
2024/02/25 00:43:59;;;;;;;15.43;1.73;;;6.00;92.70;;;;;;4981663;28;20191;-82
2024/02/25 00:46:24;;;;;;;13.93;1.50;;;6.00;92.20;;;;;;4999406;28;20297;-82
2024/02/25 00:48:50;;;;;;;16.80;1.93;;;6.00;91.50;;;;;;4997986;28;20680;-82
2024/02/25 00:51:16;;;;;;;14.40;1.50;;;6.00;92.30;;;;;;5004774;28;20266;-82
2024/02/25 00:53:41;;;;;;;14.47;1.23;;;6.00;92.20;;;;;;5002793;28;20168;-82
2024/02/25 00:56:07;;;;;;;14.60;1.63;;;6.00;92.30;;;;;;5000742;28;20229;-83
2024/02/25 00:58:35;;;;;;;16.43;1.70;;;6.00;91.40;;;;;;5001224;28;20508;-82
2024/02/25 01:01:00;;;;;;;13.85;1.40;;;6.00;92.30;;;;;;5000963;28;20203;-82
2024/02/25 01:03:26;;;;;;;13.93;1.40;;;6.00;90.80;;;;;;5001138;28;20167;-83
2024/02/25 01:05:52;;;;;;;14.30;1.10;;;6.10;90.00;;;;;;4982764;28;20262;-83
2024/02/25 01:08:18;;;;;;;16.07;1.90;;;6.00;91.20;;;;;;5000613;28;20195;-82
2024/02/25 01:10:43;;;;;;;13.87;1.43;;;6.10;90.30;;;;;;5000302;28;20232;-82
2024/02/25 01:13:09;;;;;;;21.80;1.83;;;6.10;91.10;;;;;;5000618;28;20171;-83
2024/02/25 01:15:35;;;;;;;15.20;1.83;;;6.10;90.60;;;;;;5000916;28;20174;-83
2024/02/25 01:18:00;;;;;;;13.80;1.30;;;6.10;90.50;;;;;;4999173;28;20214;-83
2024/02/25 01:20:26;;;;;;;14.53;1.60;;;6.10;90.20;;;;;;4982854;28;20195;-82
2024/02/25 01:22:52;;;;;;;15.50;1.60;;;6.10;88.80;;;;;;5000770;28;20214;-82
2024/02/25 01:25:19;;;;;;;14.57;1.50;;;6.10;87.50;;;;;;5000667;28;20179;-83
2024/02/25 01:27:45;;;;;;;19.40;1.95;;;6.00;87.50;;;;;;4998124;28;20172;-83
2024/02/25 01:30:13;;;;;;;14.35;1.55;;;6.00;84.60;;;;;;5000466;28;20271;-83
2024/02/25 01:32:39;;;;;;;19.88;2.63;;;6.00;83.70;;;;;;4999159;28;20168;-83
2024/02/25 01:35:06;;;;;;;13.67;1.20;;;6.00;84.80;;;;;;5000366;28;20170;-82
2024/02/25 01:37:31;;;;;;;14.27;1.50;;;6.10;84.70;;;;;;5000046;28;20207;-83
2024/02/25 01:39:57;;;;;;;14.93;1.70;;;6.00;84.90;;;;;;5000665;28;20190;-82
2024/02/25 01:42:22;;;;;;;13.87;1.10;;;6.10;85.30;;;;;;5000006;28;20632;-83
2024/02/25 01:44:58;;;;;;;18.10;2.03;;;6.20;85.30;;;;;;4998453;28;20178;-83
2024/02/25 01:47:24;;;;;;;14.25;1.70;;;6.10;82.20;;;;;;5000069;28;20613;-82
2024/02/25 01:49:50;;;;;;;15.93;2.08;;;6.10;84.40;;;;;;4982703;28;20588;-83
2024/02/25 01:52:18;;;;;;;16.30;1.53;;;6.10;85.90;;;;;;4999829;28;20167;-83
2024/02/25 01:54:44;;;;;;;14.60;1.40;;;6.20;86.80;;;;;;4982039;28;20419;-83
2024/02/25 01:57:11;;;;;;;14.15;1.42;;;6.20;83.40;;;;;;4999330;28;20245;-83
2024/02/25 01:59:37;;;;;;;15.82;2.38;;;6.10;84.90;;;;;;4999033;28;20737;-82
2024/02/25 02:02:03;;;;;;;14.60;1.83;;;6.10;85.10;;;;;;4998182;28;20175;-82
2024/02/25 02:04:28;;;;;;;13.87;1.30;;;6.10;86.30;;;;;;4996462;28;20417;-82
2024/02/25 02:06:55;;;;;;;14.53;1.60;;;6.00;89.30;;;;;;4997431;28;20167;-82
2024/02/25 02:09:21;;;;;;;15.40;1.65;;;6.10;90.80;;;;;;4997770;28;20171;-82
2024/02/25 02:11:58;;;;;;;14.20;1.27;;;6.00;90.30;;;;;;4997917;28;20198;-82
2024/02/25 02:14:25;;;;;;;14.60;1.83;;;6.00;90.80;;;;;;4997247;28;20167;-82
2024/02/25 02:16:51;;;;;;;15.23;1.75;;;5.90;91.60;;;;;;4979629;28;20191;-82
2024/02/25 02:19:17;;;;;;;14.60;1.80;;;5.90;92.60;;;;;;4997994;28;20213;-82
2024/02/25 02:21:43;;;;;;;14.30;1.50;;;5.90;92.60;;;;;;4996880;28;20496;-81
2024/02/25 02:24:08;;;;;;;17.10;1.37;;;5.90;93.00;;;;;;4998691;28;20411;-82
2024/02/25 02:26:34;;;;;;;15.57;1.83;;;5.90;92.00;;;;;;4997711;28;20585;-82
2024/02/25 02:29:00;;;;;;;13.83;1.20;;;5.90;92.60;;;;;;4997012;28;20171;-81
2024/02/25 02:31:25;;;;;;;15.43;1.10;;;5.90;92.40;;;;;;4996741;28;20194;-82
2024/02/25 02:33:52;;;;;;;14.17;1.50;;;5.90;92.50;;;;;;4997213;28;20214;-81
2024/02/25 02:36:18;;;;;;;13.63;1.15;;;6.00;91.40;;;;;;4997024;28;20253;-82
2024/02/25 02:38:44;;;;;;;13.83;1.10;;;6.00;90.50;;;;;;4997441;28;20188;-82
2024/02/25 02:41:10;;;;;;;14.88;1.50;;;6.00;91.00;;;;;;4979837;28;20194;-82
2024/02/25 02:43:36;;;;;;;13.65;1.20;;;6.00;91.00;;;;;;4997136;28;20167;-82
2024/02/25 02:46:03;;;;;;;15.25;1.30;;;6.10;90.00;;;;;;4996826;28;20163;-82
2024/02/25 02:48:28;;;;;;;13.85;0.90;;;6.10;89.80;;;;;;4997040;28;20166;-82
2024/02/25 02:50:55;;;;;;;13.90;1.27;;;6.00;88.20;;;;;;4996900;28;20183;-82
2024/02/25 02:53:21;;;;;;;14.57;1.30;;;5.90;92.20;;;;;;4979542;28;20174;-82
2024/02/25 02:55:47;;;;;;;13.37;0.90;;;5.90;94.10;;;;;;4996766;28;20175;-82
2024/02/25 02:58:12;;;;;;;14.10;1.00;;;6.00;93.70;;;;;;4996621;28;20676;-81
2024/02/25 03:00:38;;;;;;;13.63;1.00;;;6.00;94.80;;;;;;4979146;28;20751;-81
2024/02/25 03:03:04;;;;;;;13.83;1.30;;;6.00;94.20;;;;;;4995474;28;20173;-81
2024/02/25 03:05:30;;;;;;;14.10;1.40;;;6.00;92.10;;;;;;4979177;28;20210;-82
2024/02/25 03:07:55;;;;;;;14.03;1.13;;;6.00;93.00;;;;;;4979204;28;20469;-82
2024/02/25 03:10:21;;;;;;;14.37;1.30;;;5.90;93.40;;;;;;4998296;28;20334;-82
2024/02/25 03:12:48;;;;;;;13.53;1.00;;;5.90;95.80;;;;;;5003352;28;20193;-82
2024/02/25 03:15:13;;;;;;;13.85;1.23;;;5.80;97.60;;;;;;4999378;28;20191;-83
2024/02/25 03:17:42;;;;;;;14.60;1.10;;;5.90;96.40;;;;;;4997857;28;20199;-82
2024/02/25 03:20:09;;;;;;;13.80;1.20;;;6.00;95.90;;;;;;4997983;28;20226;-82
2024/02/25 03:22:35;;;;;;;13.85;1.33;;;6.00;94.30;;;;;;4981018;28;20618;-83
2024/02/25 03:25:02;;;;;;;14.30;1.20;;;6.00;95.70;;;;;;4998927;28;20171;-83
2024/02/25 03:27:29;;;;;;;13.82;1.10;;;6.00;96.60;;;;;;4998314;28;20514;-83
2024/02/25 03:29:54;;;;;;;13.48;0.90;;;6.00;96.90;;;;;;4998569;28;20265;-82
2024/02/25 03:32:20;;;;;;;13.47;1.00;;;6.00;97.20;;;;;;4998661;28;20163;-83
2024/02/25 03:34:45;;;;;;;14.17;1.13;;;6.00;97.90;;;;;;4997753;28;20644;-83
2024/02/25 03:37:12;;;;;;;14.20;1.20;;;6.00;98.60;;;;;;4997878;28;20190;-83
2024/02/25 03:39:38;;;;;;;13.70;1.00;;;6.00;99.20;;;;;;4997980;28;20531;-82
2024/02/25 03:42:03;;;;;;;13.50;1.43;;;5.90;99.70;;;;;;4997810;28;20167;-83
2024/02/25 03:44:29;;;;;;;13.63;1.17;;;5.90;99.90;;;;;;4998362;28;20167;-83
2024/02/25 03:46:55;;;;;;;13.57;1.10;;;5.90;99.90;;;;;;4998035;28;20171;-83
2024/02/25 03:49:21;;;;;;;13.87;1.20;;;5.90;99.90;;;;;;4998357;28;20163;-83
2024/02/25 03:51:47;;;;;;;14.80;1.10;;;5.90;99.90;;;;;;4996550;28;20305;-83
2024/02/25 03:54:13;;;;;;;15.60;1.30;;;5.90;99.90;;;;;;4998197;28;20414;-83
2024/02/25 03:56:38;;;;;;;14.83;1.37;;;5.90;99.90;;;;;;4997764;28;20691;-82
2024/02/25 03:59:04;;;;;;;14.90;1.47;;;5.90;99.90;;;;;;4997708;28;20418;-83
2024/02/25 04:01:30;;;;;;;13.57;1.20;;;5.90;99.90;;;;;;4997639;28;20175;-83
2024/02/25 04:03:56;;;;;;;14.20;1.17;;;5.90;99.90;;;;;;4997370;28;20178;-83
2024/02/25 04:06:22;;;;;;;13.70;1.13;;;6.00;99.90;;;;;;4997648;28;20164;-83
2024/02/25 04:08:48;;;;;;;13.70;1.20;;;5.90;99.90;;;;;;4998091;28;20813;-83
2024/02/25 04:11:14;;;;;;;14.20;1.60;;;6.00;99.90;;;;;;4997582;28;20187;-83
2024/02/25 04:13:39;;;;;;;14.03;1.57;;;6.00;99.90;;;;;;4997970;28;20253;-83
2024/02/25 04:16:05;;;;;;;14.03;1.40;;;6.00;99.90;;;;;;4997594;28;20167;-83
2024/02/25 04:18:31;;;;;;;14.47;1.20;;;6.00;99.90;;;;;;4997817;28;20168;-82
2024/02/25 04:20:56;;;;;;;19.90;1.60;;;6.00;99.90;;;;;;4998128;28;20418;-82
2024/02/25 04:23:23;;;;;;;14.03;1.20;;;6.10;99.90;;;;;;4997789;28;20178;-82
2024/02/25 04:25:49;;;;;;;15.68;1.27;;;6.10;99.90;;;;;;4997957;28;20163;-83
2024/02/25 04:28:15;;;;;;;14.87;1.40;;;6.10;99.90;;;;;;4997716;28;20514;-83
2024/02/25 04:30:40;;;;;;;13.70;1.33;;;6.00;99.90;;;;;;4997197;28;20261;-83
2024/02/25 04:33:06;;;;;;;13.90;1.57;;;6.00;99.90;;;;;;4997020;28;20168;-82
2024/02/25 04:35:32;;;;;;;14.23;1.40;;;5.90;99.90;;;;;;4996929;28;20667;-83
2024/02/25 04:37:57;;;;;;;14.70;1.60;;;5.90;99.90;;;;;;4995804;28;20195;-82
2024/02/25 04:40:24;;;;;;;13.90;1.37;;;5.90;99.90;;;;;;4997144;28;20198;-82
2024/02/25 04:42:49;;;;;;;15.10;1.48;;;5.90;99.90;;;;;;4997968;28;20485;-83
2024/02/25 04:45:15;;;;;;;15.50;1.63;;;5.90;99.90;;;;;;4995931;28;20171;-82
2024/02/25 04:47:41;;;;;;;14.20;1.20;;;5.90;99.90;;;;;;4995987;28;20185;-82
2024/02/25 04:50:07;;;;;;;13.87;1.30;;;5.80;99.90;;;;;;4996620;28;20195;-83
2024/02/25 04:52:33;;;;;;;13.75;1.20;;;5.80;99.90;;;;;;4996666;28;20217;-82
2024/02/25 04:54:58;;;;;;;14.30;1.40;;;5.80;99.90;;;;;;4997009;28;20168;-82
2024/02/25 04:57:24;;;;;;;14.10;1.40;;;5.90;99.90;;;;;;4996748;28;20191;-82
2024/02/25 04:59:50;;;;;;;13.30;1.00;;;5.90;99.90;;;;;;4995126;28;20210;-83
2024/02/25 05:02:15;;;;;;;14.03;1.23;;;5.90;99.90;;;;;;4997103;28;20171;-82
2024/02/25 05:04:42;;;;;;;13.30;0.97;;;5.90;99.90;;;;;;5000102;28;20171;-82
2024/02/25 05:07:08;;;;;;;14.10;1.15;;;6.00;99.90;;;;;;5000510;28;20175;-82
2024/02/25 05:09:34;;;;;;;13.73;1.35;;;6.00;99.90;;;;;;5000465;28;20164;-83
2024/02/25 05:11:59;;;;;;;13.80;1.20;;;6.00;99.90;;;;;;4999953;28;20242;-82
2024/02/25 05:14:25;;;;;;;15.20;1.77;;;5.90;99.90;;;;;;5000007;28;20418;-83
2024/02/25 05:16:51;;;;;;;13.57;1.13;;;5.90;99.90;;;;;;5000227;28;20189;-82
2024/02/25 05:19:17;;;;;;;14.40;1.43;;;5.90;99.90;;;;;;4998789;28;20411;-83
2024/02/25 05:21:46;;;;;;;13.38;1.00;;;5.90;99.90;;;;;;5000215;28;20206;-83
2024/02/25 05:24:11;;;;;;;13.80;1.27;;;6.00;99.90;;;;;;5000095;28;20164;-82
2024/02/25 05:26:38;;;;;;;14.60;1.30;;;6.00;99.90;;;;;;5000519;28;20171;-83
2024/02/25 05:29:04;;;;;;;13.18;0.90;;;6.00;99.90;;;;;;4999836;28;20167;-83
2024/02/25 05:31:29;;;;;;;13.85;1.33;;;6.00;99.90;;;;;;4983295;28;20218;-83
2024/02/25 05:33:55;;;;;;;13.67;1.03;;;6.00;99.90;;;;;;4989338;28;20171;-83
2024/02/25 05:36:22;;;;;;;13.10;0.87;;;5.90;99.90;;;;;;5003611;28;20171;-83
2024/02/25 05:38:49;;;;;;;14.40;1.60;;;5.90;99.90;;;;;;5002344;28;20478;-83
2024/02/25 05:41:15;;;;;;;13.45;1.20;;;5.90;99.90;;;;;;5000763;28;20187;-83
2024/02/25 05:43:46;;;;;;;14.30;1.50;;;5.90;99.90;;;;;;5000440;28;20518;-83
2024/02/25 05:46:13;;;;;;;14.25;1.65;;;5.90;99.90;;;;;;5001612;28;20403;-83
2024/02/25 05:48:39;;;;;;;13.98;1.33;;;5.90;99.90;;;;;;5001487;28;20198;-83
2024/02/25 05:51:06;;;;;;;13.63;1.15;;;5.90;99.90;;;;;;5001843;28;20552;-83
2024/02/25 05:53:31;;;;;;;14.20;1.30;;;5.90;99.90;;;;;;5001499;28;20537;-83
2024/02/25 05:55:57;;;;;;;14.30;1.50;;;5.90;99.90;;;;;;5000743;28;20229;-83
2024/02/25 05:58:23;;;;;;;13.80;1.30;;;5.90;99.90;;;;;;5001023;28;20221;-83
2024/02/25 06:00:48;;;;;;;13.53;1.30;;;5.90;99.90;;;;;;5000950;28;20190;-83
2024/02/25 06:03:15;;;;;;;13.53;1.17;;;5.90;99.90;;;;;;5000824;28;20179;-83
2024/02/25 06:05:41;;;;;;;13.90;1.40;;;5.90;99.90;;;;;;5000720;28;20160;-83
2024/02/25 06:08:07;;;;;;;14.02;1.40;;;5.90;99.90;;;;;;5001079;28;20231;-83
2024/02/25 06:10:33;;;;;;;14.00;1.45;;;5.90;99.90;;;;;;5001534;28;20679;-83
2024/02/25 06:12:59;;;;;;;13.55;1.20;;;5.80;99.90;;;;;;5000727;28;20167;-83
2024/02/25 06:15:25;;;;;;;15.10;1.40;;;5.80;99.90;;;;;;5000548;28;20222;-83
2024/02/25 06:17:51;;;;;;;13.40;1.27;;;5.80;99.90;;;;;;5000839;28;20481;-83
2024/02/25 06:20:17;;;;;;;14.00;1.53;;;5.80;99.90;;;;;;5000182;28;20430;-83
2024/02/25 06:22:42;;;;;;;14.40;1.33;;;5.90;99.90;;;;;;4999993;28;20227;-83
2024/02/25 06:25:09;;;;;;;14.40;1.60;;;5.90;99.90;;;;;;5000021;28;20239;-83
2024/02/25 06:27:36;;;;;;;15.70;1.60;;;5.90;99.90;;;;;;5000326;28;20170;-83
2024/02/25 06:30:08;;;;;;;16.83;1.67;;;5.90;99.90;;;;;;5000145;28;20186;-83
2024/02/25 06:32:34;;;;;;;14.07;1.50;;;5.90;99.90;;;;;;5000042;28;20254;-83
2024/02/25 06:35:04;;;;;;;13.55;1.40;;;5.80;99.90;;;;;;4982317;28;20172;-83
2024/02/25 06:37:33;;;;;;;14.20;1.65;;;5.90;99.90;;;;;;5000247;28;20198;-83
2024/02/25 06:39:59;;;;;;;14.65;1.20;;;5.90;99.90;;;;;;5000007;28;20700;-83
2024/02/25 06:42:30;;;;;;;13.50;1.20;;;5.80;99.90;;;;;;4999526;28;20175;-83
2024/02/25 06:44:56;;;;;;;15.15;1.25;;;5.80;99.90;;;;;;4981458;28;20581;-82
2024/02/25 06:47:21;;;;;;;13.87;1.57;;;5.90;99.90;;;;;;4997403;28;20206;-82
2024/02/25 06:49:47;;;;;;;13.47;1.10;;;5.90;99.90;;;;;;4997571;28;20211;-83
2024/02/25 06:52:13;;;;;;;13.30;1.00;;;5.90;99.90;;;;;;4997525;28;20167;-82
2024/02/25 06:54:41;;;;;;;13.30;1.13;;;6.00;99.90;;;;;;4996682;28;20552;-82
2024/02/25 06:57:07;;;;;;;14.25;1.20;;;5.90;99.90;;;;;;4997460;28;20226;-82
2024/02/25 06:59:32;;;;;;;13.87;1.67;;;6.00;99.90;;;;;;4997977;28;20182;-83
2024/02/25 07:01:58;;;;;;;13.83;1.27;;;6.00;99.90;;;;;;4995732;28;20194;-82
2024/02/25 07:04:24;;;;;;;14.77;1.53;;;6.10;99.90;;;;;;4997205;28;20664;-81
2024/02/25 07:06:50;;;;;;;13.25;1.20;;;6.10;99.90;;;;;;4996663;28;20160;-81
2024/02/25 07:09:15;;;;;;;13.50;1.20;;;6.10;99.90;;;;;;4996452;28;20516;-81
2024/02/25 07:11:42;;;;;;;13.07;1.00;;;6.20;99.90;;;;;;4996299;28;20561;-81
2024/02/25 07:14:07;;;;;;;13.60;1.17;;;6.20;99.90;;;;;;4996435;28;20564;-81
2024/02/25 07:16:33;;;;;;;13.23;1.00;;;6.30;99.90;;;;;;4996318;28;20246;-82
2024/02/25 07:18:59;;;;;;;15.50;1.43;;;6.40;99.90;;;;;;4996280;28;20169;-81
2024/02/25 07:21:26;;;;;;;13.33;0.97;;;6.40;99.90;;;;;;4995640;28;20430;-81
2024/02/25 07:23:52;;;;;;;13.98;1.20;;;6.40;99.90;;;;;;4996273;28;20247;-82
2024/02/25 07:26:17;;;;;;;14.20;1.00;;;6.40;99.90;;;;;;4996378;28;20198;-81
2024/02/25 07:28:43;;;;;;;13.47;1.10;;;6.40;99.90;;;;;;4978921;28;20167;-82
2024/02/25 07:31:17;;;;;;;13.27;0.90;;;6.50;99.90;;;;;;4978875;28;20187;-82
2024/02/25 07:33:44;;;;;;;13.75;1.00;;;6.40;99.90;;;;;;4996610;28;20155;-82
2024/02/25 07:36:11;;;;;;;13.18;0.90;;;6.50;99.90;;;;;;4997456;28;20159;-81
2024/02/25 07:38:37;;;;;;;13.20;1.00;;;6.50;99.90;;;;;;4997073;28;20193;-82
2024/02/25 07:41:03;;;;;;;13.18;1.00;;;6.50;99.90;;;;;;4996555;28;20526;-82
2024/02/25 07:43:29;;;;;;;13.50;1.00;;;6.60;99.90;;;;;;4997281;28;20294;-82
2024/02/25 07:45:54;;;;;;;13.67;1.17;;;6.60;99.90;;;;;;4995474;28;20171;-82
2024/02/25 07:48:20;;;;;;;13.30;0.97;;;6.60;99.90;;;;;;4997097;28;20238;-82
2024/02/25 07:50:46;;;;;;;13.50;1.00;;;6.70;99.90;;;;;;4995433;28;20202;-82
2024/02/25 07:53:11;;;;;;;13.70;1.00;;;6.70;99.90;;;;;;4999082;28;20163;-83
2024/02/25 07:55:37;;;;;;;13.50;1.00;;;6.80;99.90;;;;;;5002187;28;20174;-83
2024/02/25 07:58:05;;;;;;;13.20;1.03;;;6.80;99.90;;;;;;4998159;28;20218;-83
2024/02/25 08:00:32;;;;;;;13.70;1.17;;;6.80;99.90;;;;;;4997569;28;20203;-83
2024/02/25 08:02:57;;;;;;;13.45;1.10;;;6.90;99.90;;;;;;4997770;28;20222;-83
2024/02/25 08:05:23;;;;;;;13.80;0.93;;;6.90;99.90;;;;;;4998060;28;20171;-83
2024/02/25 08:07:50;;;;;;;13.30;1.10;;;7.00;99.90;;;;;;4998092;28;20174;-83
2024/02/25 08:10:16;;;;;;;18.05;1.60;;;6.90;99.90;;;;;;4997076;28;20226;-83
2024/02/25 08:12:41;;;;;;;13.23;1.00;;;7.00;99.90;;;;;;4997484;28;20659;-83
2024/02/25 08:15:07;;;;;;;20.37;1.10;;;7.00;99.90;;;;;;4997602;28;20172;-83
2024/02/25 08:17:36;;;;;;;13.43;1.00;;;7.10;99.90;;;;;;4997972;28;20192;-83
2024/02/25 08:20:02;;;;;;;13.35;1.10;;;7.10;99.90;;;;;;4997743;28;20935;-83
2024/02/25 08:22:28;;;;;;;13.25;0.90;;;7.20;99.90;;;;;;4997542;28;20163;-83
2024/02/25 08:24:54;;;;;;;14.07;1.10;;;7.30;99.50;;;;;;4979902;28;20194;-83
2024/02/25 08:27:20;;;;;;;13.57;1.00;;;7.40;98.00;;;;;;4996187;28;20179;-83
2024/02/25 08:29:45;;;;;;;14.35;0.95;;;7.40;96.20;;;;;;4979821;28;20209;-82
2024/02/25 08:32:14;;;;;;;13.60;1.20;;;7.30;95.90;;;;;;4997431;28;20151;-82
2024/02/25 08:34:40;;;;;;;13.20;0.93;;;7.40;93.10;;;;;;4997518;28;20202;-82
2024/02/25 08:37:05;;;;;;;13.27;0.87;;;7.40;90.00;;;;;;4998492;28;20191;-82
2024/02/25 08:39:31;;;;;;;13.43;1.10;;;7.50;91.60;;;;;;5001059;28;20218;-82
2024/02/25 08:42:00;;;;;;;14.43;0.90;;;7.60;90.10;;;;;;5000964;28;20167;-82
2024/02/25 08:44:25;;;;;;;13.18;0.90;;;7.80;90.70;;;;;;5000352;28;20213;-82
2024/02/25 08:46:52;;;;;;;13.30;0.90;;;7.90;86.80;;;;;;5000862;28;20620;-83
2024/02/25 08:49:18;;;;;;;15.75;1.13;;;7.90;67.30;;;;;;4982892;28;20542;-82
2024/02/25 08:51:44;;;;;;;14.60;1.20;;;8.00;67.60;;;;;;5000505;28;20183;-82
2024/02/25 08:54:09;;;;;;;13.70;1.00;;;8.00;57.60;;;;;;4983357;28;20177;-82
2024/02/25 08:56:35;;;;;;;13.37;0.97;;;8.10;54.80;;;;;;5000283;28;20195;-82
2024/02/25 08:59:01;;;;;;;14.53;1.10;;;8.10;47.10;;;;;;5000096;28;20604;-82
2024/02/25 09:01:27;;;;;;;13.20;0.80;;;8.10;44.70;;;;;;4998702;28;20214;-81
2024/02/25 09:03:52;;;;;;;13.50;0.97;;;8.10;35.30;;;;;;4998461;28;20158;-81
2024/02/25 09:06:18;;;;;;;13.50;0.90;;;8.20;39.60;;;;;;4996197;28;20409;-81
2024/02/25 09:08:44;;;;;;;14.53;1.07;;;8.30;36.50;;;;;;4979529;28;20310;-81
2024/02/25 09:11:09;;;;;;;18.23;1.00;;;8.50;29.70;;;;;;4997044;28;20278;-81
2024/02/25 09:13:35;;;;;;;14.00;1.00;;;8.70;24.10;;;;;;4997163;28;20257;-81
2024/02/25 09:16:01;;;;;;;13.90;0.80;;;8.70;18.40;;;;;;4996700;28;20408;-80
2024/02/25 09:18:27;;;;;;;13.48;0.90;;;8.80;18.50;;;;;;4996800;28;20812;-81
2024/02/25 09:20:52;;;;;;;13.23;0.70;;;8.90;19.30;;;;;;4996713;28;20195;-81
2024/02/25 09:23:18;;;;;;;13.33;0.90;;;9.10;16.30;;;;;;4997419;28;20182;-81
2024/02/25 09:25:43;;;;;;;14.20;1.00;;;9.00;2.00;;;;;;4996591;28;20251;-81
2024/02/25 09:28:16;;;;;;;15.70;1.00;;;9.00;1.00;;;;;;4996928;28;20710;-80
2024/02/25 09:30:43;;;;;;;13.63;1.05;;;8.90;1.00;;;;;;4995165;28;20205;-81
2024/02/25 09:33:10;;;;;;;13.88;0.90;;;8.90;1.00;;;;;;4996291;28;20148;-81
2024/02/25 09:35:35;;;;;;;13.35;0.70;;;8.90;1.00;;;;;;4996898;28;20171;-82
2024/02/25 09:38:01;;;;;;;14.87;1.10;;;8.70;1.00;;;;;;4996508;28;20191;-81
2024/02/25 09:40:26;;;;;;;13.40;0.80;;;8.60;1.00;;;;;;4996216;28;20191;-81
2024/02/25 09:42:52;;;;;;;13.80;0.90;;;8.70;4.60;;;;;;4995042;28;20692;-81
2024/02/25 09:45:22;;;;;;;13.63;0.90;;;8.70;1.00;;;;;;4996432;28;20167;-81
2024/02/25 09:47:52;;;;;;;13.35;0.80;;;8.70;1.00;;;;;;4996334;28;20513;-80
2024/02/25 09:50:19;;;;;;;13.73;0.93;;;8.60;1.00;;;;;;4995744;28;20195;-80
2024/02/25 09:52:48;;;;;;;13.32;0.70;;;8.70;1.00;;;;;;4995252;28;20548;-81
2024/02/25 09:55:14;;;;;;;13.95;1.10;;;8.80;1.80;;;;;;4996622;28;20171;-81
2024/02/25 09:57:41;;;;;;;13.65;0.80;;;8.80;1.00;;;;;;4996246;28;20199;-81
2024/02/25 10:00:09;;;;;;;13.75;0.82;;;9.00;1.00;;;;;;4955974;28;1180568;-81
2024/02/25 10:02:35;;;;;;;13.43;0.88;;;9.10;1.00;;;;;;4997348;28;20226;-81
2024/02/25 10:05:05;;;;;;;18.05;1.05;;;9.30;1.00;;;;;;4997084;28;20167;-80
2024/02/25 10:07:33;;;;;;;13.45;0.80;;;9.40;1.00;;;;;;4995767;28;20210;-81
2024/02/25 10:09:59;;;;;;;14.98;1.08;;;9.30;1.00;;;;;;4996702;28;20187;-81
2024/02/25 10:12:25;;;;;;;15.27;1.17;;;9.30;1.00;;;;;;4997149;28;20227;-81
2024/02/25 10:14:54;;;;;;;13.73;0.90;;;9.50;1.00;;;;;;4996893;28;20625;-81
2024/02/25 10:17:24;;;;;;;13.40;0.70;;;9.70;1.00;;;;;;5001656;28;20199;-81
2024/02/25 10:19:56;;;;;;;13.52;0.80;;;10.00;1.00;;;;;;5002610;28;20180;-82
2024/02/25 10:22:24;;;;;;;14.10;0.77;;;10.10;1.00;;;;;;4981349;28;20156;-81
2024/02/25 10:24:50;;;;;;;13.73;0.85;;;10.20;1.00;;;;;;4981552;28;20182;-82
2024/02/25 10:27:18;;;;;;;13.77;0.93;;;10.10;1.00;;;;;;4998194;28;20159;-82
2024/02/25 10:29:55;;;;;;;13.48;0.85;;;10.20;1.00;;;;;;4996906;28;20176;-82
2024/02/25 10:32:23;;;;;;;13.60;0.80;;;10.30;1.00;;;;;;4998562;28;20233;-82
2024/02/25 10:34:53;;;;;;;17.50;1.10;;;10.50;1.00;;;;;;4998710;28;20170;-82
2024/02/25 10:37:21;;;;;;;14.15;0.88;;;10.30;1.00;;;;;;4997615;28;20233;-82
2024/02/25 10:39:51;;;;;;;13.68;0.80;;;10.30;1.00;;;;;;4998062;28;20235;-82
2024/02/25 10:42:26;;;;;;;13.52;0.80;;;10.10;1.00;;;;;;4998417;28;20226;-82
2024/02/25 10:44:56;;;;;;;13.40;0.80;;;9.90;1.00;;;;;;4998210;28;20155;-82
2024/02/25 10:47:23;;;;;;;16.58;0.95;;;9.90;1.00;;;;;;4998078;28;20576;-82
2024/02/25 10:49:51;;;;;;;13.20;0.70;;;10.10;1.00;;;;;;4997895;28;20256;-82
2024/02/25 10:52:17;;;;;;;13.57;0.90;;;10.20;1.00;;;;;;4997966;28;20225;-82
2024/02/25 10:54:46;;;;;;;17.15;1.20;;;10.20;1.00;;;;;;4981274;28;20182;-82
2024/02/25 10:57:13;;;;;;;13.45;0.80;;;10.10;1.00;;;;;;4998065;28;20202;-82
2024/02/25 10:59:40;;;;;;;15.63;1.00;;;10.00;1.00;;;;;;4997296;28;20199;-82
2024/02/25 11:02:10;;;;;;;13.55;0.90;;;10.10;1.00;;;;;;4995836;28;20175;-82
2024/02/25 11:04:37;;;;;;;14.52;1.30;;;10.30;1.00;;;;;;4998072;28;20159;-82
2024/02/25 11:07:04;;;;;;;13.38;0.80;;;10.40;1.00;;;;;;4998650;28;20525;-82
2024/02/25 11:09:30;;;;;;;13.65;0.90;;;10.30;1.00;;;;;;4997875;28;20253;-82
2024/02/25 11:12:26;;;;;;;15.55;0.98;;;10.20;1.00;;;;;;4997812;28;20172;-82
2024/02/25 11:15:07;;;;;;;13.20;0.70;;;10.00;1.00;;;;;;4997100;28;20175;-82
2024/02/25 11:17:38;;;;;;;14.20;1.17;;;9.90;1.00;;;;;;4997628;28;20190;-82
2024/02/25 11:20:09;;;;;;;14.10;0.80;;;9.70;1.00;;;;;;4997673;28;20183;-82
2024/02/25 11:22:41;;;;;;;14.30;0.90;;;9.60;1.00;;;;;;4997877;28;20231;-82
2024/02/25 11:25:30;;;;;;;13.80;0.90;;;9.70;1.00;;;;;;4997727;28;20174;-82
2024/02/25 11:27:59;;;;;;;14.30;1.00;;;9.80;1.00;;;;;;4997557;28;20190;-82
2024/02/25 11:30:44;;;;;;;13.52;0.80;;;9.90;1.00;;;;;;4997131;28;20179;-81
2024/02/25 11:33:32;;;;;;;13.30;0.80;;;9.90;1.00;;;;;;4995724;28;20171;-80
2024/02/25 11:35:59;;;;;;;13.43;0.80;;;10.20;1.00;;;;;;4995096;28;20171;-80
2024/02/25 11:38:29;;;;;;;13.95;1.00;;;10.50;1.00;;;;;;4995709;28;20238;-81
2024/02/25 11:40:58;;;;;;;13.60;0.80;;;10.90;1.00;;;;;;4995365;28;20599;-81
2024/02/25 11:43:27;;;;;;;15.10;1.38;;;11.10;1.00;;;;;;4993752;28;20194;-81
2024/02/25 11:45:54;;;;;;;14.35;0.80;;;11.30;1.00;;;;;;4995200;28;20706;-82
2024/02/25 11:48:20;;;;;;;13.15;0.70;;;11.30;1.00;;;;;;4995533;28;20171;-82
2024/02/25 11:50:48;;;;;;;14.00;1.20;;;11.50;1.00;;;;;;4994966;28;20191;-81
2024/02/25 11:53:19;;;;;;;13.70;0.80;;;11.80;1.00;;;;;;4993869;28;20421;-82
2024/02/25 11:55:47;;;;;;;13.90;0.90;;;12.00;1.00;;;;;;4994861;28;20640;-81
2024/02/25 11:58:13;;;;;;;13.23;0.77;;;12.10;1.00;;;;;;4995236;28;20194;-81
2024/02/25 12:00:38;;;;;;;13.27;0.80;;;12.10;1.00;;;;;;4993541;28;20202;-81
2024/02/25 12:03:05;;;;;;;14.67;1.00;;;12.20;1.00;;;;;;4994851;28;20206;-81
2024/02/25 12:05:32;;;;;;;14.18;0.98;;;12.20;1.00;;;;;;4994742;28;20174;-81
2024/02/25 12:07:58;;;;;;;17.40;0.80;;;12.00;1.00;;;;;;4994970;28;20641;-81
2024/02/25 12:10:25;;;;;;;14.10;0.95;;;11.90;1.00;;;;;;4993263;28;20249;-81
2024/02/25 12:12:52;;;;;;;13.48;0.80;;;11.80;1.00;;;;;;4996999;28;20245;-81
2024/02/25 12:15:19;;;;;;;13.80;0.85;;;11.80;1.00;;;;;;4998746;28;20532;-81
2024/02/25 12:17:47;;;;;;;14.48;1.00;;;11.50;1.00;;;;;;4998362;28;20202;-81
2024/02/25 12:20:13;;;;;;;13.45;0.80;;;11.50;1.00;;;;;;4998703;28;20203;-81
2024/02/25 12:22:40;;;;;;;16.05;1.20;;;11.50;1.00;;;;;;4998459;28;20226;-81
2024/02/25 12:25:06;;;;;;;13.43;0.90;;;11.50;1.00;;;;;;4998751;28;20159;-81
2024/02/25 12:27:32;;;;;;;13.65;0.80;;;11.50;1.00;;;;;;4997979;28;20601;-81
2024/02/25 12:30:00;;;;;;;13.13;0.80;;;11.70;1.00;;;;;;4999568;28;20218;-82
2024/02/25 12:32:26;;;;;;;13.30;0.70;;;11.70;1.00;;;;;;5001336;28;20397;-82
2024/02/25 12:34:52;;;;;;;14.30;1.10;;;11.70;1.00;;;;;;4998460;28;20661;-81
2024/02/25 12:37:22;;;;;;;13.57;0.80;;;11.40;1.00;;;;;;4999879;28;20227;-82
2024/02/25 12:39:49;;;;;;;15.02;1.25;;;11.30;1.00;;;;;;4981927;28;20202;-81
2024/02/25 12:42:16;;;;;;;17.50;1.25;;;11.40;1.00;;;;;;4997520;28;20254;-81
2024/02/25 12:44:45;;;;;;;13.55;0.77;;;11.30;1.00;;;;;;4981052;28;20167;-81